sensor_id;sensor_type;location;lat;lon;timestamp;pressure;altitude;pressure_sealevel;temperature;humidity
19112;BME280;9688;51.906;8.376;2023-06-26T00:02:04;100494.53;;;23.63;79.88
19112;BME280;9688;51.906;8.376;2023-06-26T00:04:49;100490.44;;;23.58;79.98
19112;BME280;9688;51.906;8.376;2023-06-26T00:07:37;100487.16;;;23.55;80.06
19112;BME280;9688;51.906;8.376;2023-06-26T00:10:23;100489.31;;;23.51;80.16
19112;BME280;9688;51.906;8.376;2023-06-26T00:13:08;100486.91;;;23.48;80.46
19112;BME280;9688;51.906;8.376;2023-06-26T00:15:58;100487.19;;;23.45;80.47
19112;BME280;9688;51.906;8.376;2023-06-26T00:18:47;100490.03;;;23.44;80.69
19112;BME280;9688;51.906;8.376;2023-06-26T00:21:32;100481.38;;;23.40;80.85
19112;BME280;9688;51.906;8.376;2023-06-26T00:24:17;100483.22;;;23.40;81.00
19112;BME280;9688;51.906;8.376;2023-06-26T00:27:03;100476.41;;;23.35;80.79
19112;BME280;9688;51.906;8.376;2023-06-26T00:29:48;100472.16;;;23.33;81.18
19112;BME280;9688;51.906;8.376;2023-06-26T00:32:36;100471.47;;;23.31;81.27
19112;BME280;9688;51.906;8.376;2023-06-26T00:35:21;100471.72;;;23.28;81.23
19112;BME280;9688;51.906;8.376;2023-06-26T00:38:06;100473.59;;;23.27;80.84
19112;BME280;9688;51.906;8.376;2023-06-26T00:40:51;100465.94;;;23.23;81.13
19112;BME280;9688;51.906;8.376;2023-06-26T00:43:39;100461.97;;;23.17;81.23
19112;BME280;9688;51.906;8.376;2023-06-26T00:46:24;100461.69;;;23.10;81.82
19112;BME280;9688;51.906;8.376;2023-06-26T00:49:12;100450.09;;;23.00;82.28
19112;BME280;9688;51.906;8.376;2023-06-26T00:51:58;100452.78;;;23.00;81.87
19112;BME280;9688;51.906;8.376;2023-06-26T00:54:44;100454.59;;;23.00;82.26
19112;BME280;9688;51.906;8.376;2023-06-26T00:57:30;100445.66;;;22.99;82.17
19112;BME280;9688;51.906;8.376;2023-06-26T01:00:15;100449.22;;;23.00;81.98
19112;BME280;9688;51.906;8.376;2023-06-26T01:03:01;100449.38;;;22.98;82.57
19112;BME280;9688;51.906;8.376;2023-06-26T01:05:48;100451.72;;;22.91;82.48
19112;BME280;9688;51.906;8.376;2023-06-26T01:08:33;100457.41;;;22.88;82.38
19112;BME280;9688;51.906;8.376;2023-06-26T01:11:19;100448.78;;;22.85;82.51
19112;BME280;9688;51.906;8.376;2023-06-26T01:14:04;100441.69;;;22.84;82.26
19112;BME280;9688;51.906;8.376;2023-06-26T01:16:49;100433.72;;;22.82;82.49
19112;BME280;9688;51.906;8.376;2023-06-26T01:19:35;100434.72;;;22.81;82.23
19112;BME280;9688;51.906;8.376;2023-06-26T01:22:29;100434.31;;;22.76;82.70
19112;BME280;9688;51.906;8.376;2023-06-26T01:25:21;100425.38;;;22.76;82.24
19112;BME280;9688;51.906;8.376;2023-06-26T01:28:10;100425.66;;;22.73;82.89
19112;BME280;9688;51.906;8.376;2023-06-26T01:30:56;100424.09;;;22.70;82.65
19112;BME280;9688;51.906;8.376;2023-06-26T01:33:43;100416.16;;;22.68;82.67
19112;BME280;9688;51.906;8.376;2023-06-26T01:36:30;100410.03;;;22.66;82.74
19112;BME280;9688;51.906;8.376;2023-06-26T01:39:18;100415.59;;;22.65;82.60
19112;BME280;9688;51.906;8.376;2023-06-26T01:42:05;100410.47;;;22.62;82.69
19112;BME280;9688;51.906;8.376;2023-06-26T01:44:55;100407.91;;;22.60;82.30
19112;BME280;9688;51.906;8.376;2023-06-26T01:47:44;100406.22;;;22.59;82.38
19112;BME280;9688;51.906;8.376;2023-06-26T01:50:33;100400.84;;;22.59;82.08
19112;BME280;9688;51.906;8.376;2023-06-26T01:53:24;100388.22;;;22.60;82.22
19112;BME280;9688;51.906;8.376;2023-06-26T01:56:13;100382.09;;;22.58;82.29
19112;BME280;9688;51.906;8.376;2023-06-26T01:58:59;100387.66;;;22.56;82.15
19112;BME280;9688;51.906;8.376;2023-06-26T02:01:47;100386.78;;;22.56;81.92
19112;BME280;9688;51.906;8.376;2023-06-26T02:04:33;100387.78;;;22.55;82.09
19112;BME280;9688;51.906;8.376;2023-06-26T02:07:18;100386.94;;;22.54;81.98
19112;BME280;9688;51.906;8.376;2023-06-26T02:10:08;100377.16;;;22.53;81.57
19112;BME280;9688;51.906;8.376;2023-06-26T02:12:53;100386.22;;;22.52;81.72
19112;BME280;9688;51.906;8.376;2023-06-26T02:15:39;100371.19;;;22.49;81.59
19112;BME280;9688;51.906;8.376;2023-06-26T02:18:26;100374.03;;;22.48;81.66
19112;BME280;9688;51.906;8.376;2023-06-26T02:21:11;100381.53;;;22.44;82.20
19112;BME280;9688;51.906;8.376;2023-06-26T02:23:57;100379.97;;;22.42;81.74
19112;BME280;9688;51.906;8.376;2023-06-26T02:26:42;100383.09;;;22.37;81.91
19112;BME280;9688;51.906;8.376;2023-06-26T02:29:27;100377.00;;;22.35;82.16
19112;BME280;9688;51.906;8.376;2023-06-26T02:32:13;100381.53;;;22.35;82.55
19112;BME280;9688;51.906;8.376;2023-06-26T02:35:00;100375.31;;;22.34;82.32
19112;BME280;9688;51.906;8.376;2023-06-26T02:37:45;100366.38;;;22.34;82.03
19112;BME280;9688;51.906;8.376;2023-06-26T02:40:30;100364.81;;;22.31;82.50
19112;BME280;9688;51.906;8.376;2023-06-26T02:43:16;100365.06;;;22.28;82.52
19112;BME280;9688;51.906;8.376;2023-06-26T02:46:01;100359.13;;;22.24;82.43
19112;BME280;9688;51.906;8.376;2023-06-26T02:48:47;100365.38;;;22.25;82.53
19112;BME280;9688;51.906;8.376;2023-06-26T02:51:34;100353.19;;;22.21;82.12
19112;BME280;9688;51.906;8.376;2023-06-26T02:54:19;100362.38;;;22.18;82.16
19112;BME280;9688;51.906;8.376;2023-06-26T02:57:06;100357.09;;;22.17;82.31
19112;BME280;9688;51.906;8.376;2023-06-26T02:59:54;100356.41;;;22.15;82.23
19112;BME280;9688;51.906;8.376;2023-06-26T03:02:40;100360.22;;;22.12;82.47
19112;BME280;9688;51.906;8.376;2023-06-26T03:05:25;100358.50;;;22.11;82.19
19112;BME280;9688;51.906;8.376;2023-06-26T03:08:11;100360.34;;;22.11;82.06
19112;BME280;9688;51.906;8.376;2023-06-26T03:10:57;100353.28;;;22.10;82.32
19112;BME280;9688;51.906;8.376;2023-06-26T03:13:42;100356.94;;;22.09;82.38
19112;BME280;9688;51.906;8.376;2023-06-26T03:16:28;100358.78;;;22.08;82.47
19112;BME280;9688;51.906;8.376;2023-06-26T03:19:13;100367.72;;;22.09;82.34
19112;BME280;9688;51.906;8.376;2023-06-26T03:21:58;100362.34;;;22.09;82.10
19112;BME280;9688;51.906;8.376;2023-06-26T03:24:45;100355.41;;;22.06;82.14
19112;BME280;9688;51.906;8.376;2023-06-26T03:27:31;100357.38;;;22.04;82.01
19112;BME280;9688;51.906;8.376;2023-06-26T03:30:16;100356.66;;;22.02;82.06
19112;BME280;9688;51.906;8.376;2023-06-26T03:33:02;100356.53;;;22.03;82.10
19112;BME280;9688;51.906;8.376;2023-06-26T03:35:47;100362.91;;;22.02;82.12
19112;BME280;9688;51.906;8.376;2023-06-26T03:38:32;100360.91;;;22.04;82.20
19112;BME280;9688;51.906;8.376;2023-06-26T03:41:19;100353.69;;;22.05;82.11
19112;BME280;9688;51.906;8.376;2023-06-26T03:44:05;100352.44;;;22.09;81.81
19112;BME280;9688;51.906;8.376;2023-06-26T03:46:50;100350.31;;;22.13;81.59
19112;BME280;9688;51.906;8.376;2023-06-26T03:49:35;100359.94;;;22.15;81.37
19112;BME280;9688;51.906;8.376;2023-06-26T03:52:21;100359.69;;;22.18;81.37
19112;BME280;9688;51.906;8.376;2023-06-26T03:55:06;100361.25;;;22.21;81.23
19112;BME280;9688;51.906;8.376;2023-06-26T03:57:53;100359.28;;;22.23;81.17
19112;BME280;9688;51.906;8.376;2023-06-26T04:00:39;100359.84;;;22.26;81.11
19112;BME280;9688;51.906;8.376;2023-06-26T04:03:25;100365.50;;;22.33;80.69
19112;BME280;9688;51.906;8.376;2023-06-26T04:06:10;100357.44;;;22.33;80.70
19112;BME280;9688;51.906;8.376;2023-06-26T04:08:56;100363.25;;;22.38;80.42
19112;BME280;9688;51.906;8.376;2023-06-26T04:11:41;100366.50;;;22.42;80.17
19112;BME280;9688;51.906;8.376;2023-06-26T04:14:29;100362.25;;;22.49;80.13
19112;BME280;9688;51.906;8.376;2023-06-26T04:17:15;100361.84;;;22.54;79.78
19112;BME280;9688;51.906;8.376;2023-06-26T04:20:00;100363.25;;;22.58;79.67
19112;BME280;9688;51.906;8.376;2023-06-26T04:22:51;100357.56;;;22.61;78.85
19112;BME280;9688;51.906;8.376;2023-06-26T04:25:36;100369.63;;;22.66;78.78
19112;BME280;9688;51.906;8.376;2023-06-26T04:28:22;100356.72;;;22.70;78.38
19112;BME280;9688;51.906;8.376;2023-06-26T04:31:09;100346.88;;;22.88;77.60
19112;BME280;9688;51.906;8.376;2023-06-26T04:33:55;100348.47;;;23.38;75.68
19112;BME280;9688;51.906;8.376;2023-06-26T04:36:41;100356.63;;;23.28;76.16
19112;BME280;9688;51.906;8.376;2023-06-26T04:39:30;100353.94;;;23.19;76.71
19112;BME280;9688;51.906;8.376;2023-06-26T04:42:15;100346.00;;;23.17;76.74
19112;BME280;9688;51.906;8.376;2023-06-26T04:45:01;100353.22;;;23.16;76.81
19112;BME280;9688;51.906;8.376;2023-06-26T04:47:48;100352.16;;;23.37;76.06
19112;BME280;9688;51.906;8.376;2023-06-26T04:50:33;100363.50;;;23.41;75.87
19112;BME280;9688;51.906;8.376;2023-06-26T04:53:19;100362.38;;;23.43;75.42
19112;BME280;9688;51.906;8.376;2023-06-26T04:56:05;100363.91;;;23.46;75.78
19112;BME280;9688;51.906;8.376;2023-06-26T04:58:51;100357.22;;;23.50;75.19
19112;BME280;9688;51.906;8.376;2023-06-26T05:01:38;100360.88;;;23.58;74.97
19112;BME280;9688;51.906;8.376;2023-06-26T05:04:26;100357.22;;;24.05;73.01
19112;BME280;9688;51.906;8.376;2023-06-26T05:07:12;100354.69;;;24.03;72.99
19112;BME280;9688;51.906;8.376;2023-06-26T05:09:59;100352.44;;;23.99;73.03
19112;BME280;9688;51.906;8.376;2023-06-26T05:12:50;100356.69;;;24.01;72.51
19112;BME280;9688;51.906;8.376;2023-06-26T05:15:35;100358.94;;;24.06;72.86
19112;BME280;9688;51.906;8.376;2023-06-26T05:18:21;100371.50;;;24.15;72.33
19112;BME280;9688;51.906;8.376;2023-06-26T05:21:11;100359.63;;;24.26;71.93
19112;BME280;9688;51.906;8.376;2023-06-26T05:23:57;100363.56;;;24.32;71.53
19112;BME280;9688;51.906;8.376;2023-06-26T05:26:44;100363.66;;;24.40;71.43
19112;BME280;9688;51.906;8.376;2023-06-26T05:29:30;100357.66;;;24.46;70.63
19112;BME280;9688;51.906;8.376;2023-06-26T05:32:17;100358.69;;;24.71;69.80
19112;BME280;9688;51.906;8.376;2023-06-26T05:35:03;100355.59;;;24.84;68.92
19112;BME280;9688;51.906;8.376;2023-06-26T05:37:51;100363.78;;;24.92;68.20
19112;BME280;9688;51.906;8.376;2023-06-26T05:40:39;100364.00;;;25.25;66.77
19112;BME280;9688;51.906;8.376;2023-06-26T05:43:25;100368.44;;;25.34;66.07
19112;BME280;9688;51.906;8.376;2023-06-26T05:46:11;100359.81;;;25.30;66.13
19112;BME280;9688;51.906;8.376;2023-06-26T05:48:56;100367.28;;;25.36;66.05
19112;BME280;9688;51.906;8.376;2023-06-26T05:51:44;100372.53;;;25.38;65.84
19112;BME280;9688;51.906;8.376;2023-06-26T05:54:31;100372.88;;;25.43;65.83
19112;BME280;9688;51.906;8.376;2023-06-26T05:57:17;100367.84;;;25.48;65.86
19112;BME280;9688;51.906;8.376;2023-06-26T06:00:07;100353.19;;;25.59;65.54
19112;BME280;9688;51.906;8.376;2023-06-26T06:02:55;100368.91;;;25.55;65.72
19112;BME280;9688;51.906;8.376;2023-06-26T06:05:41;100378.38;;;25.59;65.41
19112;BME280;9688;51.906;8.376;2023-06-26T06:08:27;100371.81;;;25.62;65.53
19112;BME280;9688;51.906;8.376;2023-06-26T06:11:16;100373.66;;;25.62;65.65
19112;BME280;9688;51.906;8.376;2023-06-26T06:14:02;100381.28;;;25.66;65.63
19112;BME280;9688;51.906;8.376;2023-06-26T06:16:47;100377.06;;;25.64;65.61
19112;BME280;9688;51.906;8.376;2023-06-26T06:19:33;100374.91;;;25.75;65.57
19112;BME280;9688;51.906;8.376;2023-06-26T06:22:19;100377.84;;;25.90;65.21
19112;BME280;9688;51.906;8.376;2023-06-26T06:25:07;100374.97;;;25.84;65.65
19112;BME280;9688;51.906;8.376;2023-06-26T06:31:28;100390.75;;;25.96;65.88
19112;BME280;9688;51.906;8.376;2023-06-26T06:34:23;100390.75;;;26.04;65.99
19112;BME280;9688;51.906;8.376;2023-06-26T06:37:08;100403.38;;;26.30;65.51
19112;BME280;9688;51.906;8.376;2023-06-26T06:39:53;100402.19;;;26.49;64.71
19112;BME280;9688;51.906;8.376;2023-06-26T06:42:39;100400.06;;;26.61;64.81
19112;BME280;9688;51.906;8.376;2023-06-26T06:45:24;100415.78;;;26.57;64.83
19112;BME280;9688;51.906;8.376;2023-06-26T06:48:11;100432.91;;;26.50;65.29
19112;BME280;9688;51.906;8.376;2023-06-26T06:50:59;100427.16;;;26.53;65.28
19112;BME280;9688;51.906;8.376;2023-06-26T06:53:52;100429.13;;;26.42;65.44
19112;BME280;9688;51.906;8.376;2023-06-26T06:56:48;100434.00;;;26.22;66.29
19112;BME280;9688;51.906;8.376;2023-06-26T06:59:33;100428.91;;;26.11;66.98
19112;BME280;9688;51.906;8.376;2023-06-26T07:02:19;100419.31;;;25.91;67.42
19112;BME280;9688;51.906;8.376;2023-06-26T07:05:06;100422.31;;;25.79;68.08
19112;BME280;9688;51.906;8.376;2023-06-26T07:07:55;100431.25;;;25.72;68.41
19112;BME280;9688;51.906;8.376;2023-06-26T07:10:40;100434.13;;;25.70;68.45
19112;BME280;9688;51.906;8.376;2023-06-26T07:13:28;100440.00;;;25.66;68.65
19112;BME280;9688;51.906;8.376;2023-06-26T07:16:16;100433.09;;;25.71;69.24
19112;BME280;9688;51.906;8.376;2023-06-26T07:19:04;100441.94;;;25.81;69.22
19112;BME280;9688;51.906;8.376;2023-06-26T07:21:50;100440.53;;;25.95;69.41
19112;BME280;9688;51.906;8.376;2023-06-26T07:24:36;100444.81;;;26.14;68.66
19112;BME280;9688;51.906;8.376;2023-06-26T07:27:23;100437.25;;;26.34;68.52
19112;BME280;9688;51.906;8.376;2023-06-26T07:30:10;100439.88;;;26.60;67.78
19112;BME280;9688;51.906;8.376;2023-06-26T07:32:55;100445.97;;;26.62;67.62
19112;BME280;9688;51.906;8.376;2023-06-26T07:35:41;100450.72;;;26.60;67.80
19112;BME280;9688;51.906;8.376;2023-06-26T07:38:28;100451.59;;;26.69;67.05
19112;BME280;9688;51.906;8.376;2023-06-26T07:41:14;100452.78;;;26.83;66.76
19112;BME280;9688;51.906;8.376;2023-06-26T07:44:00;100455.16;;;26.94;66.91
19112;BME280;9688;51.906;8.376;2023-06-26T07:46:46;100470.06;;;26.98;66.84
19112;BME280;9688;51.906;8.376;2023-06-26T07:49:33;100464.50;;;27.00;66.83
19112;BME280;9688;51.906;8.376;2023-06-26T07:52:24;100468.38;;;26.81;67.49
19112;BME280;9688;51.906;8.376;2023-06-26T07:55:16;100490.06;;;26.73;67.77
19112;BME280;9688;51.906;8.376;2023-06-26T07:58:05;100496.34;;;26.73;67.81
19112;BME280;9688;51.906;8.376;2023-06-26T08:00:55;100516.50;;;26.70;68.39
19112;BME280;9688;51.906;8.376;2023-06-26T08:03:41;100518.72;;;26.67;68.76
19112;BME280;9688;51.906;8.376;2023-06-26T08:06:26;100510.19;;;26.54;69.14
19112;BME280;9688;51.906;8.376;2023-06-26T08:09:14;100513.34;;;26.41;69.30
19112;BME280;9688;51.906;8.376;2023-06-26T08:12:06;100504.47;;;26.22;69.85
19112;BME280;9688;51.906;8.376;2023-06-26T08:14:53;100528.66;;;26.16;70.09
19112;BME280;9688;51.906;8.376;2023-06-26T08:17:39;100522.53;;;26.06;70.25
19112;BME280;9688;51.906;8.376;2023-06-26T08:20:26;100523.44;;;25.88;70.85
19112;BME280;9688;51.906;8.376;2023-06-26T08:23:12;100523.47;;;25.70;71.42
19112;BME280;9688;51.906;8.376;2023-06-26T08:25:58;100528.69;;;25.64;71.73
19112;BME280;9688;51.906;8.376;2023-06-26T08:28:47;100519.44;;;25.74;71.59
19112;BME280;9688;51.906;8.376;2023-06-26T08:31:33;100520.44;;;25.99;71.00
19112;BME280;9688;51.906;8.376;2023-06-26T08:34:24;100498.47;;;26.02;70.74
19112;BME280;9688;51.906;8.376;2023-06-26T08:37:15;100504.19;;;25.99;71.16
19112;BME280;9688;51.906;8.376;2023-06-26T08:40:10;100513.06;;;26.10;70.88
19112;BME280;9688;51.906;8.376;2023-06-26T08:42:58;100521.03;;;26.11;70.86
19112;BME280;9688;51.906;8.376;2023-06-26T08:45:47;100506.31;;;26.14;71.07
19112;BME280;9688;51.906;8.376;2023-06-26T08:48:36;100520.22;;;26.27;70.70
19112;BME280;9688;51.906;8.376;2023-06-26T08:51:25;100526.59;;;26.44;69.91
19112;BME280;9688;51.906;8.376;2023-06-26T08:54:27;100535.34;;;26.72;68.88
19112;BME280;9688;51.906;8.376;2023-06-26T08:57:17;100541.81;;;26.96;68.21
19112;BME280;9688;51.906;8.376;2023-06-26T09:00:17;100551.47;;;26.98;68.42
19112;BME280;9688;51.906;8.376;2023-06-26T09:03:09;100553.69;;;27.03;68.30
19112;BME280;9688;51.906;8.376;2023-06-26T09:06:04;100551.13;;;26.93;68.52
19112;BME280;9688;51.906;8.376;2023-06-26T09:08:50;100557.06;;;26.88;68.59
19112;BME280;9688;51.906;8.376;2023-06-26T09:11:39;100555.91;;;27.07;67.85
19112;BME280;9688;51.906;8.376;2023-06-26T09:14:26;100559.53;;;27.24;67.66
19112;BME280;9688;51.906;8.376;2023-06-26T09:17:16;100567.34;;;27.44;67.29
19112;BME280;9688;51.906;8.376;2023-06-26T09:20:09;100565.59;;;27.67;66.44
19112;BME280;9688;51.906;8.376;2023-06-26T09:22:57;100566.28;;;27.61;66.17
19112;BME280;9688;51.906;8.376;2023-06-26T09:25:43;100569.84;;;27.78;65.65
19112;BME280;9688;51.906;8.376;2023-06-26T09:28:34;100562.06;;;27.83;65.01
19112;BME280;9688;51.906;8.376;2023-06-26T09:31:25;100551.63;;;28.03;64.78
19112;BME280;9688;51.906;8.376;2023-06-26T09:34:31;100554.66;;;28.16;64.53
19112;BME280;9688;51.906;8.376;2023-06-26T09:44:26;100564.34;;;28.19;64.19
19112;BME280;9688;51.906;8.376;2023-06-26T09:47:15;100559.78;;;28.11;64.35
19112;BME280;9688;51.906;8.376;2023-06-26T09:50:22;100563.34;;;28.03;64.30
19112;BME280;9688;51.906;8.376;2023-06-26T09:53:25;100563.19;;;28.05;64.26
19112;BME280;9688;51.906;8.376;2023-06-26T09:56:27;100564.88;;;28.06;63.93
19112;BME280;9688;51.906;8.376;2023-06-26T09:59:17;100561.13;;;28.07;63.67
19112;BME280;9688;51.906;8.376;2023-06-26T10:02:26;100553.72;;;27.85;63.83
19112;BME280;9688;51.906;8.376;2023-06-26T10:05:27;100550.31;;;27.74;63.26
19112;BME280;9688;51.906;8.376;2023-06-26T10:08:15;100555.22;;;27.71;63.55
19112;BME280;9688;51.906;8.376;2023-06-26T10:11:16;100554.75;;;27.67;63.45
19112;BME280;9688;51.906;8.376;2023-06-26T10:14:17;100561.56;;;27.55;64.46
19112;BME280;9688;51.906;8.376;2023-06-26T10:17:17;100562.56;;;27.38;64.38
19112;BME280;9688;51.906;8.376;2023-06-26T10:20:10;100563.59;;;27.28;64.36
19112;BME280;9688;51.906;8.376;2023-06-26T10:23:11;100566.66;;;27.33;64.36
19112;BME280;9688;51.906;8.376;2023-06-26T10:26:12;100567.84;;;27.31;64.68
19112;BME280;9688;51.906;8.376;2023-06-26T10:29:04;100558.50;;;27.33;64.66
19112;BME280;9688;51.906;8.376;2023-06-26T10:31:55;100556.13;;;27.39;64.42
19112;BME280;9688;51.906;8.376;2023-06-26T10:34:45;100564.78;;;27.50;64.39
19112;BME280;9688;51.906;8.376;2023-06-26T10:37:42;100564.78;;;27.58;63.80
19112;BME280;9688;51.906;8.376;2023-06-26T10:40:40;100581.75;;;27.36;63.89
19112;BME280;9688;51.906;8.376;2023-06-26T10:43:30;100599.16;;;27.09;64.33
19112;BME280;9688;51.906;8.376;2023-06-26T10:46:18;100600.50;;;26.88;64.04
19112;BME280;9688;51.906;8.376;2023-06-26T10:49:12;100593.88;;;26.83;63.79
19112;BME280;9688;51.906;8.376;2023-06-26T10:52:03;100604.03;;;26.81;63.61
19112;BME280;9688;51.906;8.376;2023-06-26T10:54:57;100605.38;;;26.85;63.38
19112;BME280;9688;51.906;8.376;2023-06-26T10:57:46;100601.16;;;26.90;62.38
19112;BME280;9688;51.906;8.376;2023-06-26T11:00:33;100605.91;;;26.88;62.17
19112;BME280;9688;51.906;8.376;2023-06-26T11:03:23;100601.81;;;26.84;62.50
19112;BME280;9688;51.906;8.376;2023-06-26T11:06:09;100596.78;;;26.98;62.03
19112;BME280;9688;51.906;8.376;2023-06-26T11:09:01;100606.28;;;27.10;61.55
19112;BME280;9688;51.906;8.376;2023-06-26T11:28:39;100615.00;;;27.30;58.49
19112;BME280;9688;51.906;8.376;2023-06-26T11:31:26;100609.06;;;27.43;58.16
19112;BME280;9688;51.906;8.376;2023-06-26T11:34:14;100613.81;;;27.65;57.62
19112;BME280;9688;51.906;8.376;2023-06-26T11:37:00;100612.81;;;27.74;56.70
19112;BME280;9688;51.906;8.376;2023-06-26T11:39:47;100609.25;;;27.82;55.97
19112;BME280;9688;51.906;8.376;2023-06-26T11:42:33;100612.84;;;27.91;54.22
19112;BME280;9688;51.906;8.376;2023-06-26T11:45:22;100610.75;;;27.93;53.18
19112;BME280;9688;51.906;8.376;2023-06-26T11:48:07;100616.38;;;28.08;51.97
19112;BME280;9688;51.906;8.376;2023-06-26T11:50:54;100609.91;;;28.00;51.49
19112;BME280;9688;51.906;8.376;2023-06-26T11:53:41;100616.72;;;27.96;51.39
19112;BME280;9688;51.906;8.376;2023-06-26T11:56:27;100621.44;;;28.19;51.07
19112;BME280;9688;51.906;8.376;2023-06-26T11:59:13;100637.50;;;28.37;49.90
19112;BME280;9688;51.906;8.376;2023-06-26T12:02:04;100628.69;;;28.43;48.59
19112;BME280;9688;51.906;8.376;2023-06-26T12:04:51;100636.31;;;28.39;48.91
19112;BME280;9688;51.906;8.376;2023-06-26T12:07:37;100630.38;;;28.36;48.83
19112;BME280;9688;51.906;8.376;2023-06-26T12:10:23;100637.03;;;28.33;49.32
19112;BME280;9688;51.906;8.376;2023-06-26T12:13:08;100632.66;;;28.16;49.70
19112;BME280;9688;51.906;8.376;2023-06-26T12:15:51;100647.13;;;28.00;49.87
19112;BME280;9688;51.906;8.376;2023-06-26T12:18:38;100647.13;;;27.92;49.67
19112;BME280;9688;51.906;8.376;2023-06-26T12:21:49;100641.50;;;28.01;50.19
19112;BME280;9688;51.906;8.376;2023-06-26T12:24:38;100644.06;;;28.03;48.74
19112;BME280;9688;51.906;8.376;2023-06-26T12:27:30;100641.66;;;28.08;47.62
19112;BME280;9688;51.906;8.376;2023-06-26T12:30:18;100632.47;;;28.09;47.90
19112;BME280;9688;51.906;8.376;2023-06-26T12:33:12;100637.75;;;28.19;48.12
19112;BME280;9688;51.906;8.376;2023-06-26T12:36:00;100636.88;;;28.18;48.00
19112;BME280;9688;51.906;8.376;2023-06-26T12:38:48;100646.75;;;28.11;47.64
19112;BME280;9688;51.906;8.376;2023-06-26T12:41:34;100649.47;;;28.11;47.63
19112;BME280;9688;51.906;8.376;2023-06-26T12:44:25;100638.44;;;28.05;47.81
19112;BME280;9688;51.906;8.376;2023-06-26T12:47:11;100659.53;;;28.02;47.56
19112;BME280;9688;51.906;8.376;2023-06-26T12:49:58;100658.50;;;28.03;47.52
19112;BME280;9688;51.906;8.376;2023-06-26T12:52:46;100652.91;;;28.05;47.64
19112;BME280;9688;51.906;8.376;2023-06-26T12:55:32;100662.41;;;28.01;47.92
19112;BME280;9688;51.906;8.376;2023-06-26T12:58:18;100668.31;;;28.05;48.53
19112;BME280;9688;51.906;8.376;2023-06-26T13:01:05;100674.44;;;28.15;48.65
19112;BME280;9688;51.906;8.376;2023-06-26T13:03:51;100677.00;;;28.24;48.15
19112;BME280;9688;51.906;8.376;2023-06-26T13:06:37;100672.38;;;28.25;47.68
19112;BME280;9688;51.906;8.376;2023-06-26T13:09:25;100655.59;;;28.21;47.59
19112;BME280;9688;51.906;8.376;2023-06-26T13:12:12;100656.91;;;28.25;47.04
19112;BME280;9688;51.906;8.376;2023-06-26T13:14:58;100672.19;;;28.35;47.36
19112;BME280;9688;51.906;8.376;2023-06-26T13:17:45;100669.47;;;28.35;47.31
19112;BME280;9688;51.906;8.376;2023-06-26T13:20:31;100668.97;;;28.39;46.95
19112;BME280;9688;51.906;8.376;2023-06-26T13:23:20;100672.06;;;28.12;46.66
19112;BME280;9688;51.906;8.376;2023-06-26T13:26:07;100679.41;;;27.87;47.55
19112;BME280;9688;51.906;8.376;2023-06-26T13:28:54;100688.53;;;27.69;47.83
19112;BME280;9688;51.906;8.376;2023-06-26T13:31:39;100689.72;;;27.58;46.89
19112;BME280;9688;51.906;8.376;2023-06-26T13:34:27;100686.16;;;27.50;46.31
19112;BME280;9688;51.906;8.376;2023-06-26T13:37:14;100690.53;;;27.43;46.34
19112;BME280;9688;51.906;8.376;2023-06-26T13:39:59;100685.97;;;27.51;46.73
19112;BME280;9688;51.906;8.376;2023-06-26T13:42:56;100689.00;;;27.48;47.05
19112;BME280;9688;51.906;8.376;2023-06-26T13:45:42;100678.00;;;27.50;47.07
19112;BME280;9688;51.906;8.376;2023-06-26T13:48:29;100690.88;;;27.40;47.34
19112;BME280;9688;51.906;8.376;2023-06-26T13:51:19;100696.47;;;27.30;47.47
19112;BME280;9688;51.906;8.376;2023-06-26T13:54:05;100690.03;;;27.39;46.98
19112;BME280;9688;51.906;8.376;2023-06-26T13:56:53;100695.31;;;27.57;46.00
19112;BME280;9688;51.906;8.376;2023-06-26T13:59:45;100690.41;;;27.85;45.11
19112;BME280;9688;51.906;8.376;2023-06-26T14:02:35;100700.44;;;28.09;44.19
19112;BME280;9688;51.906;8.376;2023-06-26T14:05:24;100692.78;;;28.05;43.97
19112;BME280;9688;51.906;8.376;2023-06-26T14:08:13;100697.72;;;28.09;44.05
19112;BME280;9688;51.906;8.376;2023-06-26T14:10:59;100711.50;;;28.24;44.19
19112;BME280;9688;51.906;8.376;2023-06-26T14:13:45;100699.56;;;28.33;43.86
19112;BME280;9688;51.906;8.376;2023-06-26T14:16:32;100703.28;;;28.40;43.98
19112;BME280;9688;51.906;8.376;2023-06-26T14:19:18;100690.22;;;28.28;44.33
19112;BME280;9688;51.906;8.376;2023-06-26T14:22:07;100694.66;;;28.04;44.22
19112;BME280;9688;51.906;8.376;2023-06-26T14:24:54;100695.00;;;28.09;44.05
19112;BME280;9688;51.906;8.376;2023-06-26T14:27:41;100698.41;;;28.11;43.70
19112;BME280;9688;51.906;8.376;2023-06-26T14:30:31;100709.78;;;28.07;43.18
19112;BME280;9688;51.906;8.376;2023-06-26T14:33:22;100699.25;;;27.87;43.52
19112;BME280;9688;51.906;8.376;2023-06-26T14:36:08;100708.06;;;27.65;43.42
19112;BME280;9688;51.906;8.376;2023-06-26T14:38:55;100712.09;;;27.36;43.71
19112;BME280;9688;51.906;8.376;2023-06-26T14:41:41;100720.53;;;27.25;43.59
19112;BME280;9688;51.906;8.376;2023-06-26T14:44:27;100714.25;;;27.16;44.08
19112;BME280;9688;51.906;8.376;2023-06-26T14:47:13;100721.72;;;27.22;43.64
19112;BME280;9688;51.906;8.376;2023-06-26T14:50:07;100728.16;;;27.29;43.39
19112;BME280;9688;51.906;8.376;2023-06-26T14:52:54;100719.69;;;27.24;43.47
19112;BME280;9688;51.906;8.376;2023-06-26T14:55:39;100725.75;;;27.18;42.65
19112;BME280;9688;51.906;8.376;2023-06-26T14:58:25;100710.91;;;27.04;43.10
19112;BME280;9688;51.906;8.376;2023-06-26T15:01:11;100722.13;;;27.09;43.00
19112;BME280;9688;51.906;8.376;2023-06-26T15:03:59;100724.66;;;27.03;42.83
19112;BME280;9688;51.906;8.376;2023-06-26T15:06:46;100728.84;;;26.89;42.70
19112;BME280;9688;51.906;8.376;2023-06-26T15:09:33;100727.63;;;26.83;42.57
19112;BME280;9688;51.906;8.376;2023-06-26T15:12:18;100731.00;;;26.85;41.85
19112;BME280;9688;51.906;8.376;2023-06-26T15:15:05;100726.78;;;26.83;42.01
19112;BME280;9688;51.906;8.376;2023-06-26T15:17:51;100730.69;;;26.80;41.83